Time;durP1;ratioP1;P1;durP2;ratioP2;P2;SDS_P1;SDS_P2;PMS_P1;PMS_P2;Temp;Humidity;BMP_temperature;BMP_pressure;BME280_temperature;BME280_humidity;BME280_pressure;Samples;Min_cycle;Max_cycle;Signal;HPM_P1;HPM_P2
2021/01/10 00:37:00;;;;;;;4.18;3.03;;;;;;;2.19;89.00;99271.50;5458973;23;20059;-82
2021/01/10 00:39:26;;;;;;;3.25;2.95;;;;;;;2.18;88.61;99264.59;4881439;29;20600;-80
2021/01/10 00:42:29;;;;;;;3.60;2.97;;;;;;;2.20;88.88;99267.03;4887168;29;20035;-81
2021/01/10 01:04:34;;;;;;;3.55;2.58;;;;;;;2.31;88.06;99281.38;5656058;23;20060;-81
2021/01/10 01:07:33;;;;;;;3.28;2.50;;;;;;;2.33;88.25;99280.13;4892831;29;20055;-81
2021/01/10 01:12:51;;;;;;;3.88;2.85;;;;;;;2.31;87.69;99266.34;5114626;23;20052;-82
2021/01/10 01:18:55;;;;;;;4.47;3.00;;;;;;;2.32;88.08;99261.84;4883965;29;20068;-80
2021/01/10 01:21:42;;;;;;;5.03;3.40;;;;;;;2.32;87.71;99267.94;4880560;29;20080;-80
2021/01/10 01:27:33;;;;;;;3.67;2.08;;;;;;;2.30;87.69;99269.19;4883948;29;20040;-81
2021/01/10 01:49:56;;;;;;;3.92;3.25;;;;;;;2.37;88.13;99296.34;4651424;23;15084078;-78
2021/01/10 01:52:22;;;;;;;3.25;2.65;;;;;;;2.44;87.52;99291.00;4877384;29;20059;-79
2021/01/10 01:54:48;;;;;;;2.67;2.38;;;;;;;2.42;87.23;99280.66;4880887;29;20040;-79
2021/01/10 01:57:29;;;;;;;2.78;2.13;;;;;;;2.42;86.99;99275.38;4888402;29;20099;-81
2021/01/10 01:59:55;;;;;;;3.83;2.63;;;;;;;2.40;86.92;99274.78;4885319;29;20467;-79
2021/01/10 02:06:16;;;;;;;7.45;3.58;;;;;;;2.40;87.92;99283.53;4915310;29;20051;-81
2021/01/10 02:12:06;;;;;;;8.63;3.33;;;;;;;2.39;87.68;99294.28;4888657;29;20056;-79
2021/01/10 02:14:42;;;;;;;8.55;4.70;;;;;;;2.42;87.16;99291.22;4873780;29;20024;-80
2021/01/10 02:17:09;;;;;;;13.80;4.40;;;;;;;2.43;87.56;99286.72;4866483;29;20040;-78
2021/01/10 02:19:43;;;;;;;11.10;5.23;;;;;;;2.40;87.55;99283.53;4864292;29;20060;-78
2021/01/10 02:22:29;;;;;;;15.40;6.13;;;;;;;2.43;87.44;99282.28;4872968;29;20025;-80
2021/01/10 02:24:55;;;;;;;27.33;7.55;;;;;;;2.38;87.16;99280.28;4876263;29;20076;-79
2021/01/10 02:28:12;;;;;;;31.58;8.85;;;;;;;2.36;87.46;99263.06;4897062;29;20092;-82
2021/01/10 02:30:59;;;;;;;38.03;11.45;;;;;;;2.33;87.55;99271.38;4910879;29;20036;-79
2021/01/10 02:33:41;;;;;;;63.45;16.23;;;;;;;2.27;86.95;99286.28;4864588;29;20033;-81
2021/01/10 02:40:12;;;;;;;72.13;16.60;;;;;;;2.25;87.51;99288.31;4897434;29;20124;-82
2021/01/10 02:43:13;;;;;;;37.42;11.68;;;;;;;2.27;87.82;99283.63;4896887;29;20041;-81
2021/01/10 02:45:45;;;;;;;32.65;9.80;;;;;;;2.28;87.93;99289.72;4880741;29;20558;-82
2021/01/10 02:51:08;;;;;;;27.63;8.83;;;;;;;2.38;88.17;99313.78;5922119;23;20023;-84
2021/01/10 02:53:47;;;;;;;14.70;5.85;;;;;;;2.38;87.80;99311.97;4889840;29;20297;-81
2021/01/10 03:10:19;;;;;;;11.57;4.57;;;;;;;2.34;86.77;99305.47;5025994;23;20053;-80
2021/01/10 04:04:36;;;;;;;19.22;4.64;;;;;;;2.18;88.14;99301.53;4936463;29;20078;-81
2021/01/10 04:07:54;;;;;;;11.63;4.32;;;;;;;2.24;88.38;99321.00;4928847;23;20027;-81
2021/01/10 05:38:29;;;;;;;7.88;3.85;;;;;;;2.79;88.00;99381.06;4947221;29;20102;-82
2021/01/10 05:44:03;;;;;;;8.55;3.80;;;;;;;2.87;87.35;99374.72;4889169;29;20044;-83
2021/01/10 05:56:57;;;;;;;4.55;2.55;;;;;;;2.95;86.67;99363.84;4866109;29;20060;-81
2021/01/10 05:59:57;;;;;;;3.95;2.67;;;;;;;3.02;86.75;99359.31;4861169;29;20040;-83
2021/01/10 06:35:04;;;;;;;4.50;2.88;;;;;;;3.11;86.46;99406.63;4948459;29;20095;-81
2021/01/10 06:37:59;;;;;;;4.20;2.03;;;;;;;3.19;86.19;99427.47;4934614;29;20133;-83
2021/01/10 06:47:23;;;;;;;3.08;2.00;;;;;;;3.29;86.01;99433.06;4948901;23;20055;-81
2021/01/10 06:49:52;;;;;;;3.05;2.35;;;;;;;3.33;85.45;99436.09;4892933;29;20036;-82
2021/01/10 06:55:44;;;;;;;2.75;2.10;;;;;;;3.36;85.42;99433.00;5366301;23;20034;-80
2021/01/10 07:14:33;;;;;;;7.22;3.60;;;;;;;3.43;84.65;99460.19;4927304;29;20138;-82
2021/01/10 07:17:33;;;;;;;7.13;3.47;;;;;;;3.51;84.52;99481.03;4923766;29;20047;-81
2021/01/10 07:24:26;;;;;;;3.78;3.00;;;;;;;3.54;84.74;99479.81;4874212;29;20044;-85
2021/01/10 07:26:54;;;;;;;3.90;2.33;;;;;;;3.56;84.95;99480.41;4790902;29;20036;-80
2021/01/10 07:32:42;;;;;;;2.88;2.10;;;;;;;3.55;84.43;99486.72;4917762;29;20561;-80
2021/01/10 07:57:54;;;;;;;5.75;2.65;;;;;;;3.64;85.09;99487.25;4861422;29;20118;-79
2021/01/10 08:00:24;;;;;;;2.72;1.77;;;;;;;3.65;84.93;99494.13;4866542;29;20414;-79
2021/01/10 08:03:06;;;;;;;3.72;1.92;;;;;;;3.66;84.93;99493.94;4856695;29;20116;-79
2021/01/10 08:05:35;;;;;;;3.30;2.10;;;;;;;3.68;85.05;99491.06;4878404;29;20626;-79
2021/01/10 08:08:17;;;;;;;6.32;2.47;;;;;;;3.70;84.49;99473.16;4878835;29;20036;-79
2021/01/10 08:10:56;;;;;;;8.10;3.45;;;;;;;3.75;84.87;99477.75;4871445;29;20040;-81
2021/01/10 08:13:47;;;;;;;6.95;3.17;;;;;;;3.79;84.69;99468.38;4855577;29;20125;-81
2021/01/10 08:16:33;;;;;;;13.43;3.80;;;;;;;3.82;84.75;99476.69;4841020;29;20025;-82
2021/01/10 08:19:06;;;;;;;4.95;3.17;;;;;;;3.89;85.22;99463.34;4867769;29;20154;-81
2021/01/10 08:21:45;;;;;;;5.75;2.83;;;;;;;3.91;84.99;99456.00;4877866;29;20025;-81
2021/01/10 08:24:37;;;;;;;7.28;3.17;;;;;;;3.94;84.92;99457.41;4871624;29;20040;-80
2021/01/10 08:27:04;;;;;;;2.78;1.88;;;;;;;3.98;85.17;99458.59;4880070;29;20040;-78
2021/01/10 08:29:30;;;;;;;4.72;1.80;;;;;;;4.02;85.06;99473.00;4876270;29;20029;-79
2021/01/10 08:31:55;;;;;;;2.42;2.17;;;;;;;4.06;84.72;99487.38;4870638;29;20021;-79
2021/01/10 08:34:21;;;;;;;7.00;3.35;;;;;;;4.08;84.76;99492.47;4859418;29;20030;-78
2021/01/10 08:36:49;;;;;;;2.63;1.88;;;;;;;4.07;83.77;99486.34;4845756;29;20088;-80
2021/01/10 08:39:18;;;;;;;2.03;1.70;;;;;;;4.07;84.53;99490.84;4856162;29;20040;-79
2021/01/10 08:41:45;;;;;;;;;;;;;;;4.08;84.55;99498.56;4847963;29;20056;-78
2021/01/10 08:44:14;;;;;;;3.58;1.48;;;;;;;4.09;84.19;99500.19;4858511;29;20370;-79
2021/01/10 08:46:42;;;;;;;3.13;2.08;;;;;;;4.07;84.39;99501.44;4858457;29;20032;-79
2021/01/10 08:49:07;;;;;;;3.83;2.53;;;;;;;4.10;84.18;99493.03;4858663;29;20021;-78
2021/01/10 09:02:13;;;;;;;9.52;3.20;;;;;;;4.07;84.74;99489.00;4863073;29;20125;-80
2021/01/10 09:04:47;;;;;;;7.30;2.97;;;;;;;4.14;84.53;99488.94;4850587;29;20034;-80
2021/01/10 09:08:09;;;;;;;17.17;3.80;;;;;;;4.10;84.29;99483.28;4860176;29;20116;-81
2021/01/10 09:11:03;;;;;;;8.63;3.05;;;;;;;4.06;84.64;99489.25;4822406;29;20117;-79
2021/01/10 09:13:32;;;;;;;6.30;2.67;;;;;;;3.97;84.04;99483.44;4823257;29;20120;-79
2021/01/10 09:15:59;;;;;;;4.05;2.50;;;;;;;3.88;84.37;99480.25;4851893;29;20032;-80
2021/01/10 09:18:47;;;;;;;4.55;3.05;;;;;;;3.83;84.66;99477.47;4853483;29;20033;-79
2021/01/10 09:21:15;;;;;;;5.50;2.95;;;;;;;3.78;85.11;99464.09;4844521;29;20483;-79
2021/01/10 09:23:51;;;;;;;7.97;2.75;;;;;;;3.76;84.89;99458.22;4843208;29;20039;-79
2021/01/10 09:26:29;;;;;;;6.95;3.38;;;;;;;3.75;85.69;99459.25;4824939;29;20129;-80
2021/01/10 09:28:57;;;;;;;2.80;2.43;;;;;;;3.73;85.63;99470.06;4813377;29;20034;-80
2021/01/10 09:31:45;;;;;;;4.75;2.85;;;;;;;3.75;86.03;99464.53;4847015;29;20656;-80
2021/01/10 09:34:12;;;;;;;12.30;4.63;;;;;;;3.77;86.04;99476.53;4844870;29;20063;-80
2021/01/10 09:36:39;;;;;;;7.95;4.32;;;;;;;3.84;86.11;99479.09;4842867;29;20040;-80
2021/01/10 09:39:06;;;;;;;7.68;4.45;;;;;;;3.87;85.79;99469.91;4827316;29;20120;-79
2021/01/10 10:00:14;;;;;;;10.20;4.47;;;;;;;4.21;85.65;99449.13;4885373;29;20064;-82
2021/01/10 10:02:40;;;;;;;18.40;6.15;;;;;;;4.26;85.73;99426.25;4860721;29;20037;-79
2021/01/10 10:09:27;;;;;;;28.55;10.35;;;;;;;4.31;85.33;99402.56;5922510;23;20373;-80
2021/01/10 10:12:37;;;;;;;65.43;24.83;;;;;;;4.32;84.44;99395.41;5156169;23;20042;31
2021/01/10 10:31:58;;;;;;;28.25;9.50;;;;;;;4.31;84.77;99399.91;4875655;29;20338;-82
2021/01/10 10:34:33;;;;;;;19.52;6.32;;;;;;;4.36;84.67;99401.06;4848707;29;20053;-82
2021/01/10 10:36:59;;;;;;;13.68;5.20;;;;;;;4.37;84.54;99398.22;4847481;29;20029;-81
2021/01/10 10:39:31;;;;;;;13.85;5.18;;;;;;;4.39;84.78;99385.53;4846554;29;20029;-82
2021/01/10 10:42:12;;;;;;;12.73;5.68;;;;;;;4.42;83.94;99376.31;4855858;29;20029;-81
2021/01/10 10:44:38;;;;;;;9.60;6.00;;;;;;;4.41;83.99;99362.28;4852233;29;20028;-81
2021/01/10 11:05:46;;;;;;;8.73;3.33;;;;;;;4.43;84.30;99354.09;5338391;23;20054;-83
2021/01/10 13:50:28;;;;;;;63.78;24.85;;;;;;;4.71;82.91;99307.59;4898844;29;20119;-81
2021/01/10 13:52:54;;;;;;;62.45;24.63;;;;;;;4.72;83.47;99303.94;4880831;29;20498;-80
2021/01/10 13:55:53;;;;;;;45.05;15.75;;;;;;;4.72;83.81;99331.22;4889997;29;20044;-83
2021/01/10 14:02:23;;;;;;;30.70;8.27;;;;;;;4.68;84.40;99363.72;4888999;29;20043;-83
2021/01/10 14:05:12;;;;;;;23.67;7.22;;;;;;;4.68;84.49;99345.16;4864999;29;20509;-83
2021/01/10 14:07:56;;;;;;;32.90;8.07;;;;;;;4.69;84.57;99317.63;5113590;23;20537;-81
2021/01/10 14:10:57;;;;;;;19.45;5.80;;;;;;;4.67;84.21;99272.81;4866845;29;20022;-83
2021/01/10 14:13:23;;;;;;;23.73;6.38;;;;;;;4.66;84.07;99295.03;4855079;29;20036;-81
2021/01/10 14:16:27;;;;;;;21.73;5.95;;;;;;;4.64;84.42;99303.22;4876300;29;20029;-84
2021/01/10 14:34:26;;;;;;;38.00;19.02;;;;;;;4.77;84.69;99296.09;4989528;23;20063;-80
2021/01/10 14:51:19;;;;;;;22.42;11.00;;;;;;;4.81;84.35;99316.59;4829869;29;20065;-82
2021/01/10 14:53:45;;;;;;;21.92;11.38;;;;;;;4.84;84.10;99323.28;4876210;29;20574;-79
2021/01/10 15:05:45;;;;;;;16.48;6.45;;;;;;;4.74;83.57;99220.53;4971384;23;20288;-82
2021/01/10 15:08:23;;;;;;;14.57;7.10;;;;;;;4.70;84.38;99224.69;4925867;29;20032;-83
2021/01/10 15:11:06;;;;;;;30.52;15.82;;;;;;;4.69;84.48;99230.19;4973427;23;20055;-81
2021/01/10 15:14:01;;;;;;;;;;;;;;;4.72;84.70;99233.19;5271651;23;20040;-81
2021/01/10 15:19:41;;;;;;;51.15;23.52;;;;;;;4.69;84.54;99286.66;4943155;23;20052;-81
2021/01/10 15:22:06;;;;;;;60.50;27.27;;;;;;;4.76;84.76;99320.97;4915588;29;20042;-82
2021/01/10 15:24:32;;;;;;;59.67;28.10;;;;;;;4.80;85.11;99277.88;4922379;29;20036;-80
2021/01/10 15:26:58;;;;;;;62.28;28.73;;;;;;;4.84;84.98;99245.63;4903884;29;20458;-80
2021/01/10 15:29:24;;;;;;;71.05;33.13;;;;;;;4.85;84.95;99228.69;4902886;29;20035;-81
2021/01/10 15:31:54;;;;;;;70.72;34.65;;;;;;;4.85;85.24;99221.53;4873172;29;20040;-80
2021/01/10 15:34:23;;;;;;;75.85;36.20;;;;;;;4.89;85.34;99225.31;4904886;29;20031;-80
2021/01/10 15:36:55;;;;;;;87.82;40.85;;;;;;;4.91;84.68;99223.25;4903418;29;20028;-80
2021/01/10 15:39:20;;;;;;;76.15;34.20;;;;;;;4.93;84.76;99229.13;4899867;29;20036;-80
2021/01/10 15:41:46;;;;;;;80.45;34.92;;;;;;;4.92;84.76;99254.03;4892582;29;20032;-80
2021/01/10 15:44:11;;;;;;;78.88;34.33;;;;;;;4.94;85.00;99254.59;4903146;29;20032;-79
2021/01/10 15:46:36;;;;;;;69.53;30.60;;;;;;;4.98;85.01;99254.94;4903393;29;20044;-80
2021/01/10 15:49:02;;;;;;;83.78;39.88;;;;;;;4.98;84.65;99239.03;4902690;29;20032;-80
2021/01/10 15:51:28;;;;;;;72.15;30.17;;;;;;;4.99;84.96;99206.16;4904493;29;20032;-80
2021/01/10 16:09:56;;;;;;;52.42;23.42;;;;;;;4.98;84.35;99254.94;5816773;23;20060;-81
2021/01/10 16:19:51;;;;;;;17.42;8.73;;;;;;;5.01;84.31;99362.34;4884206;29;20140;-83
2021/01/10 16:22:45;;;;;;;14.43;8.55;;;;;;;4.94;84.55;99320.03;5434437;23;20062;-81
2021/01/10 16:25:11;;;;;;;18.92;8.13;;;;;;;4.93;84.23;99326.38;4907067;29;20032;-80
2021/01/10 16:28:12;;;;;;;20.98;9.20;;;;;;;4.90;84.49;99342.75;4897837;29;20127;-81
2021/01/10 16:34:24;;;;;;;15.32;7.85;;;;;;;4.86;84.85;99312.44;4925104;29;20038;-82
2021/01/10 16:36:52;;;;;;;17.17;8.68;;;;;;;4.86;85.14;99312.44;4900852;29;20467;-81
2021/01/10 16:39:21;;;;;;;15.48;6.57;;;;;;;4.87;84.91;99300.81;4891164;29;20114;-81
2021/01/10 16:41:59;;;;;;;20.73;8.93;;;;;;;4.88;85.02;99295.28;4895839;29;20029;-81
2021/01/10 16:44:51;;;;;;;19.00;8.23;;;;;;;4.89;84.89;99288.94;4908166;29;20040;-81
2021/01/10 16:48:06;;;;;;;15.15;6.43;;;;;;;4.89;84.78;99269.59;4912743;29;20043;-82
2021/01/10 17:00:52;;;;;;;15.25;6.80;;;;;;;4.87;85.09;99237.19;4920770;29;20044;-82
2021/01/10 17:03:42;;;;;;;;;;;;;;;4.88;85.33;99222.91;4883448;29;20052;-82
2021/01/10 17:09:56;;;;;;;13.93;7.15;;;;;;;4.89;85.58;99204.13;4851486;29;20081;-80
2021/01/10 17:12:23;;;;;;;12.45;7.18;;;;;;;4.90;85.45;99205.75;4856736;29;20029;-81
2021/01/10 17:14:51;;;;;;;11.50;6.22;;;;;;;4.93;85.22;99176.13;4859253;29;20037;-82
2021/01/10 17:20:48;;;;;;;11.23;5.50;;;;;;;4.96;84.70;99174.84;4859511;29;20101;-82
2021/01/10 17:27:46;;;;;;;12.32;6.03;;;;;;;4.98;84.75;99170.13;4847985;29;20038;-82
2021/01/10 17:51:13;;;;;;;32.15;17.98;;;;;;;4.99;84.93;99139.91;5603015;23;20052;-82
2021/01/10 17:53:57;;;;;;;31.58;16.00;;;;;;;5.09;85.28;99147.25;4906457;29;20057;-81
2021/01/10 18:03:11;;;;;;;72.03;30.77;;;;;;;5.15;85.09;99108.38;6015967;23;20027;31
2021/01/10 18:05:37;;;;;;;76.90;34.38;;;;;;;5.15;84.89;99098.59;5132380;23;20060;-80
2021/01/10 18:08:02;;;;;;;77.22;36.90;;;;;;;5.16;84.71;99100.19;4882755;29;20032;-80
2021/01/10 18:10:28;;;;;;;73.97;33.70;;;;;;;5.17;84.83;99114.25;4880507;29;20439;-80
2021/01/10 18:12:53;;;;;;;66.82;31.77;;;;;;;5.18;85.06;99137.09;4869112;29;20133;-80
2021/01/10 18:15:19;;;;;;;52.83;25.65;;;;;;;5.19;85.01;99146.63;4863660;29;20029;-80
2021/01/10 18:17:44;;;;;;;58.90;26.77;;;;;;;5.21;84.82;99141.91;4878970;29;20391;-78
2021/01/10 18:20:25;;;;;;;55.63;27.55;;;;;;;5.20;84.98;99125.19;4878528;29;20529;-80
2021/01/10 18:22:56;;;;;;;46.70;23.33;;;;;;;5.23;85.05;99119.41;4884749;29;20024;-81
2021/01/10 18:25:24;;;;;;;40.13;20.98;;;;;;;5.22;84.99;99114.34;4892983;29;20037;-77
2021/01/10 18:27:54;;;;;;;41.88;21.15;;;;;;;5.23;84.79;99105.34;4878237;29;20084;-78
2021/01/10 18:30:20;;;;;;;43.28;20.30;;;;;;;5.23;85.03;99103.50;4895978;29;20028;-78
2021/01/10 18:32:47;;;;;;;47.15;22.45;;;;;;;5.25;84.87;99113.88;4879350;29;20017;-79
2021/01/10 18:35:14;;;;;;;50.47;24.48;;;;;;;5.24;84.28;99118.34;4884883;29;20039;-80
2021/01/10 18:38:07;;;;;;;45.78;22.27;;;;;;;5.26;84.84;99120.75;4889986;29;20100;-82
2021/01/10 18:46:25;;;;;;;34.78;19.77;;;;;;;5.24;84.46;99099.81;5277256;23;20059;-80
2021/01/10 18:48:53;;;;;;;51.33;24.45;;;;;;;5.25;84.80;99096.09;4888515;29;20079;-80
2021/01/10 18:56:53;;;;;;;35.28;14.98;;;;;;;5.27;84.53;99061.41;4914439;29;20059;-78
2021/01/10 18:59:19;;;;;;;37.50;17.17;;;;;;;5.27;84.64;99064.03;4920713;29;20032;-79
2021/01/10 19:01:45;;;;;;;25.38;13.98;;;;;;;5.27;84.39;99048.97;4908387;29;20035;-78
2021/01/10 19:04:10;;;;;;;21.92;12.68;;;;;;;5.25;84.24;99043.06;4906116;29;20028;-80
2021/01/10 19:06:36;;;;;;;23.17;11.15;;;;;;;5.26;84.55;99033.25;4902660;29;20039;-78
2021/01/10 19:09:02;;;;;;;24.60;9.57;;;;;;;5.23;83.73;99034.56;4902108;29;20059;-79
2021/01/10 19:11:28;;;;;;;23.08;9.65;;;;;;;5.23;84.11;99049.66;4901337;29;20038;-79
2021/01/10 19:13:54;;;;;;;25.70;11.07;;;;;;;5.23;84.49;99047.03;4900852;29;20088;-79
2021/01/10 19:16:20;;;;;;;29.95;13.90;;;;;;;5.23;84.37;99053.13;4908974;29;20489;-78
2021/01/10 19:18:55;;;;;;;26.77;12.30;;;;;;;5.23;84.68;99049.66;4999780;23;20037;-82
2021/01/10 19:21:21;;;;;;;27.45;12.15;;;;;;;5.22;84.75;99042.75;4895321;29;20072;-78
2021/01/10 19:23:47;;;;;;;26.15;11.82;;;;;;;5.23;84.52;99034.56;4889636;29;20036;-78
2021/01/10 19:26:22;;;;;;;34.15;13.38;;;;;;;5.23;84.29;99023.94;4882512;29;20032;-78
2021/01/10 19:28:47;;;;;;;32.03;12.25;;;;;;;5.24;84.30;99038.03;4882784;29;20032;-79
2021/01/10 19:31:12;;;;;;;26.88;13.70;;;;;;;5.24;84.50;99032.72;4882650;29;20042;-77
2021/01/10 19:33:38;;;;;;;29.73;11.15;;;;;;;5.24;84.68;99009.66;4884373;29;20036;-80
2021/01/10 19:36:04;;;;;;;29.35;12.95;;;;;;;5.24;84.24;99014.16;4883739;29;20029;-81
2021/01/10 19:38:29;;;;;;;25.90;11.05;;;;;;;5.25;84.22;98999.88;4941481;23;20510;-80
2021/01/10 19:40:55;;;;;;;24.65;11.35;;;;;;;5.23;84.24;99005.38;4882107;29;20091;-77
2021/01/10 19:43:20;;;;;;;30.40;12.40;;;;;;;5.22;84.35;98997.69;4877923;29;20133;-80
2021/01/10 19:45:45;;;;;;;20.95;9.70;;;;;;;5.21;84.39;98996.06;4881840;29;20028;-81
2021/01/10 19:48:11;;;;;;;24.13;9.98;;;;;;;5.22;84.45;98973.81;4882767;29;20111;-79
2021/01/10 19:50:36;;;;;;;23.27;10.77;;;;;;;5.21;84.04;98985.47;4879981;29;20040;-79
2021/01/10 19:53:02;;;;;;;30.90;13.95;;;;;;;5.22;84.14;98997.69;4882694;29;20048;-80
2021/01/10 19:55:27;;;;;;;29.17;12.10;;;;;;;5.21;84.35;99007.50;4881555;29;20036;-80
2021/01/10 19:57:54;;;;;;;26.13;11.60;;;;;;;5.23;84.61;99001.94;4900057;29;20032;-81
2021/01/10 20:00:20;;;;;;;29.65;11.98;;;;;;;5.24;84.62;99008.84;4886944;29;20116;-79
2021/01/10 20:02:47;;;;;;;27.10;12.43;;;;;;;5.26;84.68;99030.63;4883424;29;20127;-79
2021/01/10 20:05:14;;;;;;;30.25;13.68;;;;;;;5.27;84.34;99030.41;4883491;29;20025;-79
2021/01/10 20:07:40;;;;;;;28.13;12.80;;;;;;;5.27;84.54;99016.31;4882063;29;20039;-79
2021/01/10 20:10:07;;;;;;;29.83;12.00;;;;;;;5.29;84.32;99015.03;4898505;29;20076;-79
2021/01/10 20:12:34;;;;;;;26.60;12.88;;;;;;;5.30;84.67;99021.16;4887282;29;20411;-78
2021/01/10 20:15:01;;;;;;;33.67;15.48;;;;;;;5.32;84.90;99031.50;4878847;29;20037;-79
2021/01/10 20:17:26;;;;;;;36.13;17.35;;;;;;;5.29;84.93;99033.59;4862466;29;20136;-79
2021/01/10 20:19:52;;;;;;;33.03;17.17;;;;;;;5.29;84.68;99038.09;4863174;29;20056;-79
2021/01/10 20:22:17;;;;;;;25.50;13.25;;;;;;;5.30;85.11;99029.09;4862780;29;20055;-78
2021/01/10 20:24:44;;;;;;;28.58;13.15;;;;;;;5.30;84.75;99042.38;4880288;29;20037;-78
2021/01/10 20:27:12;;;;;;;25.33;12.57;;;;;;;5.31;84.86;99057.22;4865026;29;20088;-80
2021/01/10 20:29:37;;;;;;;24.35;11.48;;;;;;;5.30;84.97;99029.09;4862805;29;20108;-76
2021/01/10 20:32:11;;;;;;;20.33;9.55;;;;;;;5.31;84.59;99028.06;4861203;29;20032;-78
2021/01/10 20:34:37;;;;;;;21.33;10.27;;;;;;;5.31;84.91;99025.41;4867179;29;20068;-79
2021/01/10 20:37:03;;;;;;;16.77;8.93;;;;;;;5.32;84.73;99031.50;4863373;29;20348;-77
2021/01/10 20:39:29;;;;;;;22.85;9.48;;;;;;;5.34;84.68;99032.09;4878983;29;20040;-79
2021/01/10 20:41:55;;;;;;;22.80;10.70;;;;;;;5.33;84.66;99041.06;4857020;29;20025;-78
2021/01/10 20:44:21;;;;;;;28.27;11.20;;;;;;;5.32;84.66;99044.78;4852874;29;20491;-79
2021/01/10 20:46:47;;;;;;;20.27;10.00;;;;;;;5.33;85.12;99049.81;4843372;29;20033;-79
2021/01/10 20:49:13;;;;;;;18.33;10.13;;;;;;;5.34;84.92;99042.69;4844633;29;20502;-80
2021/01/10 20:51:39;;;;;;;17.05;7.85;;;;;;;5.34;85.18;99037.38;4861351;29;20044;-79
2021/01/10 20:54:07;;;;;;;16.30;6.75;;;;;;;5.34;84.92;99029.44;4863474;29;20077;-80
2021/01/10 20:56:33;;;;;;;14.15;5.85;;;;;;;5.33;84.86;99017.22;4865357;29;20064;-76
2021/01/10 20:58:59;;;;;;;7.95;4.82;;;;;;;5.33;84.90;99018.00;4864607;29;20490;-79
2021/01/10 21:01:26;;;;;;;6.85;4.85;;;;;;;5.34;85.07;99018.81;4879136;29;20032;-78
2021/01/10 21:03:57;;;;;;;11.88;5.13;;;;;;;5.33;84.69;99003.94;4862676;29;20532;-77
2021/01/10 21:06:33;;;;;;;8.00;4.25;;;;;;;5.34;84.44;99002.91;4877066;29;20104;-81
2021/01/10 21:09:02;;;;;;;10.23;4.80;;;;;;;5.31;84.58;98990.94;4878495;29;20083;-82
2021/01/10 21:11:29;;;;;;;6.72;3.67;;;;;;;5.27;84.51;98973.88;4876110;29;20043;-81
2021/01/10 21:13:56;;;;;;;10.90;4.10;;;;;;;5.23;84.47;98964.81;4858331;29;20028;-79
2021/01/10 21:16:32;;;;;;;5.43;3.55;;;;;;;5.22;84.85;98981.78;4867264;29;20029;-80
2021/01/10 21:18:59;;;;;;;9.10;4.38;;;;;;;5.21;84.85;98969.56;4864629;29;20040;-80
2021/01/10 21:22:06;;;;;;;6.93;3.83;;;;;;;5.21;84.81;98973.03;4869840;29;20033;-83
2021/01/10 21:37:38;;;;;;;19.10;10.18;;;;;;;5.17;85.39;98974.53;5750140;23;20495;-81
2021/01/10 21:40:07;;;;;;;18.17;9.60;;;;;;;5.19;85.54;98983.06;4921210;29;20032;-81
2021/01/10 21:42:38;;;;;;;18.85;10.27;;;;;;;5.24;85.35;98980.47;4924959;29;20023;-79
2021/01/10 21:45:04;;;;;;;25.45;11.07;;;;;;;5.24;85.35;98977.03;4922327;29;20028;-79
2021/01/10 21:48:00;;;;;;;22.25;11.35;;;;;;;5.25;85.54;98968.03;4930331;29;20043;-81
2021/01/10 21:50:26;;;;;;;23.08;11.13;;;;;;;5.27;85.65;98969.41;4952646;29;20579;-80
2021/01/10 21:52:55;;;;;;;17.35;8.15;;;;;;;5.28;85.30;98976.31;4932076;29;20035;-82
2021/01/10 21:55:58;;;;;;;16.27;9.10;;;;;;;5.26;85.59;98985.53;4940844;29;20043;-83
2021/01/10 21:58:46;;;;;;;11.68;6.28;;;;;;;5.28;85.65;98999.38;4944248;29;20044;-85
2021/01/10 22:09:52;;;;;;;9.43;4.45;;;;;;;5.20;85.80;98960.81;5002097;23;20055;-81
2021/01/10 22:12:18;;;;;;;12.35;5.15;;;;;;;5.20;85.38;98974.06;4926595;29;20047;-82
2021/01/10 22:25:26;;;;;;;9.63;5.18;;;;;;;5.20;85.83;98944.09;4916022;29;20130;-83
2021/01/10 22:57:30;;;;;;;9.18;4.38;;;;;;;5.31;85.63;98922.00;4894824;29;20134;-81
2021/01/10 22:59:59;;;;;;;8.77;3.60;;;;;;;5.36;85.76;98922.06;4865968;29;20120;-83
2021/01/10 23:02:27;;;;;;;6.47;3.58;;;;;;;5.33;85.60;98916.44;4869233;29;20040;-82
2021/01/10 23:04:54;;;;;;;5.25;3.20;;;;;;;5.36;85.23;98911.44;4874393;29;20092;-82
2021/01/10 23:07:20;;;;;;;7.80;4.75;;;;;;;5.42;85.83;98899.03;4856965;29;20029;-82
2021/01/10 23:09:46;;;;;;;9.85;4.82;;;;;;;5.37;85.46;98896.31;4869094;29;20043;-82
2021/01/10 23:12:15;;;;;;;7.25;4.10;;;;;;;5.40;85.08;98909.91;4866450;29;20083;-82
2021/01/10 23:14:40;;;;;;;7.63;3.92;;;;;;;5.38;85.15;98892.63;4875612;29;20021;-82
2021/01/10 23:17:06;;;;;;;8.43;3.88;;;;;;;5.37;85.16;98875.13;4880334;29;20089;-82
2021/01/10 23:19:31;;;;;;;6.85;4.10;;;;;;;5.40;85.08;98869.34;4864665;29;20037;-82
2021/01/10 23:22:42;;;;;;;8.38;4.03;;;;;;;5.41;85.23;98866.44;4887877;29;20020;-83
2021/01/10 23:59:54;;;;;;;7.50;4.03;;;;;;;5.47;86.24;98867.31;6015430;23;20220;31
